Terminal Aerodrome Forecast
Issued by NWS Missoula, MT

Home | Current Version | Previous Version | Text Only | Print | Product List | Glossary On
Versions: 1 2 3 4 5 6 7 8 9 10 11 12 13 14 15 16 17 18 19
147
FTUS45 KMSO 210520
TAFGPI
TAF
KGPI 210520Z 2106/2206 18006KT P6SM VCFG OVC050
     FM210900 VRB03KT 6SM BR VCFG SCT007 BKN015
     FM211300 VRB03KT 3SM BR VCFG BKN010 OVC020
     FM211600 VRB02KT 2SM -SN BR OVC015=

USA.gov is the U.S. government's official web portal to all federal, state and local government web resources and services.